createdAt,value
2022-09-16T00:00:20.473Z,12.04
2022-09-16T00:03:22.270Z,12.00
2022-09-16T00:06:04.332Z,11.97
2022-09-16T00:08:46.327Z,11.93
2022-09-16T00:11:29.119Z,11.88
2022-09-16T00:14:11.123Z,11.85
2022-09-16T00:16:52.863Z,11.81
2022-09-16T00:19:34.637Z,11.79
2022-09-16T00:22:17.277Z,11.78
2022-09-16T00:24:59.022Z,11.74
2022-09-16T00:27:40.743Z,11.70
2022-09-16T00:30:22.457Z,11.67
2022-09-16T00:33:04.221Z,11.64
2022-09-16T00:35:47.335Z,11.59
2022-09-16T00:38:29.117Z,11.55
2022-09-16T00:41:18.500Z,11.52
2022-09-16T00:44:07.368Z,11.48
2022-09-16T00:46:49.981Z,11.46
2022-09-16T00:49:32.077Z,11.44
2022-09-16T00:52:14.143Z,11.42
2022-09-16T00:54:56.300Z,11.41
2022-09-16T00:57:39.356Z,11.40
2022-09-16T01:00:21.311Z,11.38
2022-09-16T01:03:03.177Z,11.33
2022-09-16T01:05:46.383Z,11.31
2022-09-16T01:08:28.178Z,11.30
2022-09-16T01:11:09.968Z,11.28
2022-09-16T01:13:52.989Z,11.28
2022-09-16T01:16:40.080Z,11.26
2022-09-16T01:19:48.715Z,11.24
2022-09-16T01:23:06.655Z,11.21
2022-09-16T01:26:10.200Z,11.16
2022-09-16T01:29:17.173Z,11.12
2022-09-16T01:32:06.951Z,11.09
2022-09-16T01:35:17.012Z,11.07
2022-09-16T01:38:26.426Z,11.03
2022-09-16T01:41:32.470Z,11.00
2022-09-16T01:44:27.022Z,10.97
2022-09-16T01:47:18.836Z,10.94
2022-09-16T01:50:03.811Z,10.91
2022-09-16T01:53:16.992Z,10.89
2022-09-16T01:56:06.815Z,10.87
2022-09-16T01:59:03.635Z,10.86
2022-09-16T02:02:04.059Z,10.84
2022-09-16T02:04:51.646Z,10.82
2022-09-16T02:07:37.051Z,10.80
2022-09-16T02:10:28.489Z,10.78
2022-09-16T02:13:25.438Z,10.76
2022-09-16T02:16:32.532Z,10.76
2022-09-16T02:19:40.175Z,10.73
2022-09-16T02:22:36.677Z,10.71
2022-09-16T02:25:19.993Z,10.70
2022-09-16T02:28:06.004Z,10.67
2022-09-16T02:30:53.319Z,10.67
2022-09-16T02:33:58.712Z,10.64
2022-09-16T02:36:44.451Z,10.63
2022-09-16T02:39:30.317Z,10.62
2022-09-16T02:42:12.516Z,10.61
2022-09-16T02:44:55.667Z,10.61
2022-09-16T02:47:50.485Z,10.59
2022-09-16T02:50:41.471Z,10.57
2022-09-16T02:53:58.509Z,10.54
2022-09-16T02:56:42.463Z,10.50
2022-09-16T02:59:25.443Z,10.47
2022-09-16T03:02:07.321Z,10.44
2022-09-16T03:04:49.646Z,10.42
2022-09-16T03:07:31.949Z,10.39
2022-09-16T03:10:15.208Z,10.37
2022-09-16T03:13:09.866Z,10.34
2022-09-16T03:16:04.118Z,10.32
2022-09-16T03:19:09.630Z,10.32
2022-09-16T03:22:17.707Z,10.30
2022-09-16T03:25:11.113Z,10.26
2022-09-16T03:28:05.151Z,10.24
2022-09-16T03:30:59.175Z,10.22
2022-09-16T03:34:19.218Z,10.20
2022-09-16T03:37:09.805Z,10.19
2022-09-16T03:39:57.844Z,10.18
2022-09-16T03:42:40.758Z,10.19
2022-09-16T03:45:22.617Z,10.17
2022-09-16T03:48:04.501Z,10.17
2022-09-16T03:50:46.250Z,10.16
2022-09-16T03:53:27.965Z,10.15
2022-09-16T03:56:09.942Z,10.13
2022-09-16T03:58:51.796Z,10.12
2022-09-16T04:01:33.919Z,10.12
2022-09-16T04:04:16.367Z,10.11
2022-09-16T04:06:58.384Z,10.12
2022-09-16T04:09:40.121Z,10.12
2022-09-16T04:12:29.270Z,10.11
2022-09-16T04:15:12.209Z,10.10
2022-09-16T04:17:55.285Z,10.10
2022-09-16T04:20:37.063Z,10.08
2022-09-16T04:23:18.821Z,10.06
2022-09-16T04:26:03.431Z,10.07
2022-09-16T04:28:45.162Z,10.05
2022-09-16T04:31:26.958Z,10.04
2022-09-16T04:34:12.082Z,10.03
2022-09-16T04:36:53.913Z,10.00
2022-09-16T04:39:35.651Z,10.00
2022-09-16T04:42:17.666Z,9.99
2022-09-16T04:44:59.589Z,9.99
2022-09-16T04:47:41.281Z,9.99
2022-09-16T04:50:23.589Z,10.01
2022-09-16T04:53:05.830Z,10.02
2022-09-16T04:55:48.428Z,10.03
2022-09-16T04:58:30.204Z,10.07
2022-09-16T05:01:21.827Z,10.10
2022-09-16T05:04:06.638Z,10.13
2022-09-16T05:06:48.502Z,10.17
2022-09-16T05:09:30.253Z,10.19
2022-09-16T05:12:12.058Z,10.20
2022-09-16T05:14:53.827Z,10.22
2022-09-16T05:17:51.765Z,10.24
2022-09-16T05:20:33.768Z,10.27
2022-09-16T05:23:15.532Z,10.30
2022-09-16T05:26:03.550Z,10.33
2022-09-16T05:28:45.614Z,10.37
2022-09-16T05:31:30.592Z,10.48
2022-09-16T05:34:18.662Z,10.67
2022-09-16T05:37:00.762Z,10.85
2022-09-16T05:39:42.655Z,11.00
2022-09-16T05:42:24.654Z,11.13
2022-09-16T05:45:07.268Z,11.21
2022-09-16T05:47:49.674Z,11.33
2022-09-16T05:50:31.471Z,11.44
2022-09-16T05:53:13.260Z,11.53
2022-09-16T05:56:00.393Z,11.60
2022-09-16T05:58:42.583Z,11.61
2022-09-16T06:01:32.896Z,11.60
2022-09-16T06:04:15.782Z,11.62
2022-09-16T06:06:57.586Z,11.66
2022-09-16T06:09:39.484Z,11.68
2022-09-16T06:12:21.384Z,11.72
2022-09-16T06:15:03.174Z,11.77
2022-09-16T06:17:44.965Z,11.84
2022-09-16T06:20:26.719Z,11.89
2022-09-16T06:23:08.449Z,11.96
2022-09-16T06:26:09.187Z,12.01
2022-09-16T06:28:52.516Z,12.08
2022-09-16T06:31:36.669Z,12.17
2022-09-16T06:34:18.791Z,12.26
2022-09-16T06:37:01.379Z,12.40
2022-09-16T06:39:43.274Z,12.56
2022-09-16T06:42:25.067Z,12.73
2022-09-16T06:45:07.432Z,12.90
2022-09-16T06:47:49.166Z,13.13
2022-09-16T06:50:31.881Z,13.26
2022-09-16T06:53:13.776Z,13.42
2022-09-16T06:55:57.006Z,13.56
2022-09-16T06:58:42.292Z,13.54
2022-09-16T07:01:29.898Z,13.54
2022-09-16T07:04:13.875Z,13.60
2022-09-16T07:07:09.183Z,13.71
2022-09-16T07:09:53.008Z,13.88
2022-09-16T07:12:34.900Z,13.92
2022-09-16T07:15:16.901Z,14.06
2022-09-16T07:17:58.694Z,14.09
2022-09-16T07:20:40.485Z,14.28
2022-09-16T07:23:22.279Z,14.46
2022-09-16T07:26:07.042Z,14.57
2022-09-16T07:28:50.474Z,14.56
2022-09-16T07:31:35.545Z,14.52
2022-09-16T07:34:17.541Z,14.68
2022-09-16T07:36:59.957Z,14.90
2022-09-16T07:39:41.949Z,15.06
2022-09-16T07:42:23.742Z,15.30
2022-09-16T07:45:06.763Z,15.49
2022-09-16T07:47:51.834Z,15.66
2022-09-16T07:50:33.630Z,15.75
2022-09-16T07:53:15.727Z,15.90
2022-09-16T07:56:02.438Z,16.06
2022-09-16T07:58:45.765Z,16.00
2022-09-16T08:01:28.475Z,16.10
2022-09-16T08:04:11.092Z,16.25
2022-09-16T08:06:52.988Z,16.34
2022-09-16T08:09:41.058Z,16.42
2022-09-16T08:12:32.857Z,16.47
2022-09-16T08:15:14.886Z,16.38
2022-09-16T08:17:56.855Z,16.27
2022-09-16T08:20:38.749Z,16.24
2022-09-16T08:23:20.850Z,16.32
2022-09-16T08:26:03.768Z,16.54
2022-09-16T08:29:08.985Z,16.78
2022-09-16T08:31:52.272Z,16.95
2022-09-16T08:34:34.135Z,17.04
2022-09-16T08:37:15.910Z,17.22
2022-09-16T08:39:57.899Z,17.45
2022-09-16T08:42:53.851Z,17.72
2022-09-16T08:45:53.106Z,17.99
2022-09-16T08:48:54.717Z,18.02
2022-09-16T08:51:36.862Z,18.06
2022-09-16T08:54:32.400Z,17.86
2022-09-16T08:57:24.361Z,17.91
2022-09-16T09:00:18.011Z,17.97
2022-09-16T09:03:16.927Z,17.81
2022-09-16T09:06:00.274Z,17.70
2022-09-16T09:08:51.304Z,17.52
2022-09-16T09:11:51.064Z,17.27
2022-09-16T09:15:01.214Z,17.04
2022-09-16T09:18:00.766Z,17.05
2022-09-16T09:21:23.815Z,17.31
2022-09-16T09:24:43.803Z,17.54
2022-09-16T09:27:38.997Z,17.80
2022-09-16T09:30:23.404Z,17.87
2022-09-16T09:33:44.805Z,17.92
2022-09-16T09:36:34.256Z,17.94
2022-09-16T09:39:22.095Z,17.75
2022-09-16T09:42:21.921Z,17.60
2022-09-16T09:45:09.523Z,17.42
2022-09-16T09:48:21.435Z,17.22
2022-09-16T09:51:33.130Z,17.04
2022-09-16T09:54:32.512Z,16.91
2022-09-16T09:57:38.264Z,16.76
2022-09-16T10:00:22.337Z,16.89
2022-09-16T10:03:11.903Z,17.21
2022-09-16T10:05:54.320Z,17.42
2022-09-16T10:08:44.720Z,17.42
2022-09-16T10:11:31.265Z,17.30
2022-09-16T10:14:24.891Z,17.35
2022-09-16T10:17:17.233Z,17.42
2022-09-16T10:20:20.121Z,17.40
2022-09-16T10:23:12.670Z,17.25
2022-09-16T10:26:26.921Z,17.06
2022-09-16T10:29:17.593Z,16.90
2022-09-16T10:32:06.609Z,17.02
2022-09-16T10:34:48.683Z,17.34
2022-09-16T10:37:30.461Z,17.49
2022-09-16T10:40:17.669Z,17.63
2022-09-16T10:43:04.407Z,17.93
2022-09-16T10:45:49.419Z,17.88
2022-09-16T10:48:32.465Z,17.62
2022-09-16T10:51:26.292Z,17.52
2022-09-16T10:54:24.346Z,17.85
2022-09-16T10:57:30.409Z,18.01
2022-09-16T11:00:31.697Z,18.13
2022-09-16T11:03:33.491Z,18.22
2022-09-16T11:06:30.268Z,18.10
2022-09-16T11:09:29.825Z,18.10
2022-09-16T11:12:27.030Z,18.07
2022-09-16T11:15:33.847Z,18.01
2022-09-16T11:18:41.263Z,17.81
2022-09-16T11:21:41.139Z,17.69
2022-09-16T11:24:42.783Z,17.61
2022-09-16T11:28:01.609Z,17.59
2022-09-16T11:31:13.356Z,17.41
2022-09-16T11:34:16.061Z,17.17
2022-09-16T11:37:28.966Z,16.96
2022-09-16T11:40:28.061Z,16.69
2022-09-16T11:43:45.136Z,16.41
2022-09-16T11:46:34.410Z,16.30
2022-09-16T11:49:26.260Z,16.34
2022-09-16T11:52:17.177Z,16.34
2022-09-16T11:55:19.668Z,16.36
2022-09-16T11:58:12.561Z,16.41
2022-09-16T12:00:59.493Z,16.44
2022-09-16T12:03:51.239Z,16.44
2022-09-16T12:06:49.108Z,16.51
2022-09-16T12:09:39.666Z,16.72
2022-09-16T12:12:58.879Z,16.88
2022-09-16T12:15:53.052Z,17.06
2022-09-16T12:54:45.839Z,16.91
2022-09-16T12:57:43.321Z,17.00
2022-09-16T13:00:36.127Z,17.09
2022-09-16T13:03:23.224Z,17.15
2022-09-16T13:06:19.726Z,17.19
2022-09-16T13:09:22.487Z,17.24
2022-09-16T13:12:36.399Z,17.31
2022-09-16T13:15:24.397Z,17.31
2022-09-16T13:18:20.323Z,17.26
2022-09-16T13:21:35.393Z,17.21
2022-09-16T13:24:34.901Z,17.16
2022-09-16T13:27:33.391Z,17.11
2022-09-16T13:30:27.160Z,17.04
2022-09-16T13:33:09.365Z,17.04
2022-09-16T13:36:17.064Z,17.07
2022-09-16T13:39:06.025Z,17.04
2022-09-16T13:41:48.112Z,16.98
2022-09-16T13:44:42.251Z,16.90
2022-09-16T13:47:34.488Z,16.83
2022-09-16T13:50:21.769Z,16.79
2022-09-16T13:53:24.758Z,16.76
2022-09-16T13:56:11.570Z,16.75
2022-09-16T13:59:01.558Z,16.76
2022-09-16T14:01:59.783Z,16.75
2022-09-16T14:05:16.063Z,16.78
2022-09-16T14:08:17.696Z,16.74
2022-09-16T14:11:37.686Z,16.65
2022-09-16T14:17:32.300Z,16.40
2022-09-16T14:20:18.190Z,16.34
2022-09-16T14:23:02.234Z,16.37
2022-09-16T14:25:44.641Z,16.37
2022-09-16T14:28:30.223Z,16.32
2022-09-16T14:31:22.440Z,16.23
2022-09-16T14:34:17.034Z,16.12
2022-09-16T14:37:07.625Z,16.01
2022-09-16T14:40:03.862Z,15.92
2022-09-16T14:43:07.696Z,15.85
2022-09-16T14:48:44.594Z,15.63
2022-09-16T14:51:27.820Z,15.55
2022-09-16T14:54:18.408Z,15.49
2022-09-16T14:57:24.076Z,15.44
2022-09-16T15:00:11.970Z,15.39
2022-09-16T15:02:59.477Z,15.33
2022-09-16T15:05:47.895Z,15.32
2022-09-16T15:08:37.894Z,15.30
2022-09-16T15:11:51.205Z,15.31
2022-09-16T15:14:31.562Z,15.30
2022-09-16T15:17:21.904Z,15.28
2022-09-16T15:20:05.981Z,15.28
2022-09-16T15:22:49.332Z,15.29
2022-09-16T15:25:37.489Z,15.28
2022-09-16T15:28:23.863Z,15.29
2022-09-16T15:31:10.703Z,15.31
2022-09-16T15:33:56.977Z,15.32
2022-09-16T15:36:43.247Z,15.29
2022-09-16T15:39:41.634Z,15.24
2022-09-16T15:42:26.052Z,15.18
2022-09-16T15:45:21.551Z,15.13
2022-09-16T15:48:16.167Z,15.08
2022-09-16T15:51:11.435Z,15.03
2022-09-16T15:53:58.955Z,14.96
2022-09-16T15:57:02.937Z,14.91
2022-09-16T16:00:07.303Z,14.86
2022-09-16T16:02:58.176Z,14.81
2022-09-16T16:05:52.061Z,14.75
2022-09-16T16:08:53.928Z,14.71
2022-09-16T16:11:42.437Z,14.67
2022-09-16T16:14:31.578Z,14.64
2022-09-16T16:17:21.653Z,14.60
2022-09-16T16:20:05.208Z,14.56
2022-09-16T16:22:48.835Z,14.53
2022-09-16T16:25:36.384Z,14.50
2022-09-16T16:28:19.617Z,14.47
2022-09-16T16:31:14.261Z,14.43
2022-09-16T16:33:56.175Z,14.40
2022-09-16T16:36:38.424Z,14.36
2022-09-16T16:39:21.735Z,14.32
2022-09-16T16:42:07.033Z,14.30
2022-09-16T16:44:50.088Z,14.26
2022-09-16T16:47:32.054Z,14.23
2022-09-16T16:50:14.032Z,14.19
2022-09-16T16:52:55.992Z,14.16
2022-09-16T16:55:38.314Z,14.14
2022-09-16T16:58:20.706Z,14.10
2022-09-16T17:01:21.190Z,14.06
2022-09-16T17:04:03.167Z,14.01
2022-09-16T17:06:45.109Z,13.95
2022-09-16T17:09:26.805Z,13.89
2022-09-16T17:12:09.757Z,13.84
2022-09-16T17:14:51.945Z,13.79
2022-09-16T17:17:33.743Z,13.74
2022-09-16T17:20:16.146Z,13.70
2022-09-16T17:22:57.941Z,13.64
2022-09-16T17:25:39.733Z,13.59
2022-09-16T17:28:22.269Z,13.54
2022-09-16T17:31:17.711Z,13.48
2022-09-16T17:34:03.453Z,13.41
2022-09-16T17:36:47.494Z,13.36
2022-09-16T17:39:30.101Z,13.31
2022-09-16T17:42:12.127Z,13.26
2022-09-16T17:44:53.893Z,13.21
2022-09-16T17:47:35.686Z,13.17
2022-09-16T17:50:22.739Z,13.12
2022-09-16T17:53:04.952Z,13.04
2022-09-16T17:55:47.109Z,12.97
2022-09-16T17:58:28.901Z,12.92
2022-09-16T18:01:23.596Z,12.86
2022-09-16T18:04:14.802Z,12.81
2022-09-16T18:07:12.808Z,12.75
2022-09-16T18:09:59.943Z,12.69
2022-09-16T18:12:42.417Z,12.63
2022-09-16T18:15:25.843Z,12.61
2022-09-16T18:18:07.841Z,12.58
2022-09-16T18:20:56.942Z,12.54
2022-09-16T18:23:39.415Z,12.51
2022-09-16T18:26:22.902Z,12.47
2022-09-16T18:29:10.575Z,12.45
2022-09-16T18:31:56.058Z,12.43
2022-09-16T18:34:38.160Z,12.41
2022-09-16T18:37:20.159Z,12.38
2022-09-16T18:40:03.020Z,12.34
2022-09-16T18:42:45.178Z,12.31
2022-09-16T18:45:32.603Z,12.27
2022-09-16T18:48:14.703Z,12.24
2022-09-16T18:50:57.724Z,12.20
2022-09-16T18:53:40.136Z,12.16
2022-09-16T18:56:25.368Z,12.12
2022-09-16T18:59:23.698Z,12.10
2022-09-16T19:02:09.870Z,12.07
2022-09-16T19:04:51.780Z,12.05
2022-09-16T19:07:34.959Z,12.03
2022-09-16T19:10:19.360Z,12.03
2022-09-16T19:13:04.184Z,12.03
2022-09-16T19:15:47.215Z,12.02
2022-09-16T19:18:29.431Z,12.01
2022-09-16T19:21:19.899Z,12.02
2022-09-16T19:24:06.262Z,12.02
2022-09-16T19:26:57.110Z,12.03
2022-09-16T19:29:40.483Z,12.04
2022-09-16T19:32:22.619Z,12.05
2022-09-16T19:35:08.821Z,12.07
2022-09-16T19:37:51.494Z,12.08
2022-09-16T19:40:34.573Z,12.07
2022-09-16T19:43:18.153Z,12.06
2022-09-16T19:46:08.327Z,12.04
2022-09-16T19:48:52.415Z,12.02
2022-09-16T19:51:35.683Z,11.99
2022-09-16T19:54:18.857Z,11.96
2022-09-16T19:57:00.951Z,11.92
2022-09-16T19:59:43.454Z,11.90
2022-09-16T20:02:26.519Z,11.86
2022-09-16T20:05:09.398Z,11.83
2022-09-16T20:07:51.291Z,11.80
2022-09-16T20:10:33.290Z,11.75
2022-09-16T20:13:15.289Z,11.73
2022-09-16T20:16:00.352Z,11.71
2022-09-16T20:18:56.465Z,11.67
2022-09-16T20:21:41.205Z,11.64
2022-09-16T20:24:26.412Z,11.61
2022-09-16T20:27:09.856Z,11.59
2022-09-16T20:29:52.137Z,11.56
2022-09-16T20:32:34.465Z,11.53
2022-09-16T20:35:16.772Z,11.50
2022-09-16T20:37:58.972Z,11.47
2022-09-16T20:40:43.242Z,11.44
2022-09-16T20:43:25.281Z,11.40
2022-09-16T20:46:12.466Z,11.37
2022-09-16T20:48:56.229Z,11.32
2022-09-16T20:51:38.589Z,11.27
2022-09-16T20:54:20.484Z,11.23
2022-09-16T20:57:02.380Z,11.20
2022-09-16T20:59:44.788Z,11.16
2022-09-16T21:02:26.845Z,11.12
2022-09-16T21:05:09.091Z,11.08
2022-09-16T21:07:51.295Z,11.02
2022-09-16T21:10:33.907Z,10.98
2022-09-16T21:13:15.701Z,10.94
2022-09-16T21:15:59.252Z,10.90
2022-09-16T21:18:42.478Z,10.84
2022-09-16T21:21:26.098Z,10.79
2022-09-16T21:24:08.774Z,10.77
2022-09-16T21:26:51.456Z,10.75
2022-09-16T21:29:33.218Z,10.74
2022-09-16T21:32:15.320Z,10.73
2022-09-16T21:34:57.113Z,10.72
2022-09-16T21:37:38.905Z,10.70
2022-09-16T21:40:23.751Z,10.67
2022-09-16T21:43:06.282Z,10.65
2022-09-16T21:45:48.073Z,10.63
2022-09-16T21:48:32.210Z,10.61
2022-09-16T21:51:17.294Z,10.61
2022-09-16T21:53:59.086Z,10.60
2022-09-16T21:56:41.391Z,10.59
2022-09-16T21:59:23.799Z,10.59
2022-09-16T22:02:05.999Z,10.58
2022-09-16T22:04:47.794Z,10.58
2022-09-16T22:07:29.587Z,10.58
2022-09-16T22:10:11.383Z,10.57
2022-09-16T22:12:53.180Z,10.54
2022-09-16T22:15:35.256Z,10.53
2022-09-16T22:18:17.376Z,10.51
2022-09-16T22:21:05.063Z,10.50
2022-09-16T22:23:47.360Z,10.49
2022-09-16T22:26:30.936Z,10.49
2022-09-16T22:29:13.561Z,10.47
2022-09-16T22:31:55.456Z,10.45
2022-09-16T22:34:37.219Z,10.44
2022-09-16T22:37:19.043Z,10.42
2022-09-16T22:40:01.082Z,10.39
2022-09-16T22:42:42.936Z,10.37
2022-09-16T22:45:24.832Z,10.34
2022-09-16T22:48:06.727Z,10.32
2022-09-16T22:50:56.406Z,10.30
2022-09-16T22:53:39.019Z,10.28
2022-09-16T22:56:28.695Z,10.25
2022-09-16T22:59:18.088Z,10.22
2022-09-16T23:02:00.226Z,10.20
2022-09-16T23:04:42.166Z,10.18
2022-09-16T23:07:24.061Z,10.17
2022-09-16T23:10:10.446Z,10.15
2022-09-16T23:12:52.674Z,10.13
2022-09-16T23:15:37.532Z,10.11
2022-09-16T23:18:23.011Z,10.09
2022-09-16T23:21:07.106Z,10.08
2022-09-16T23:23:51.344Z,10.07
2022-09-16T23:26:36.377Z,10.04
2022-09-16T23:29:18.589Z,10.02
2022-09-16T23:32:03.547Z,10.00
2022-09-16T23:34:45.343Z,9.99
2022-09-16T23:37:29.285Z,9.96
2022-09-16T23:40:11.222Z,9.94
2022-09-16T23:42:53.179Z,9.92
2022-09-16T23:45:35.177Z,9.91
2022-09-16T23:48:17.891Z,9.89
2022-09-16T23:51:00.079Z,9.87
2022-09-16T23:53:42.585Z,9.84
2022-09-16T23:56:25.239Z,9.82
2022-09-16T23:59:07.011Z,9.81
